createdAt,value
2019-04-01T00:01:37.969Z,24.23
2019-04-01T00:04:07.346Z,24.60
2019-04-01T00:06:36.637Z,24.80
2019-04-01T00:09:07.113Z,22.67
2019-04-01T00:11:36.406Z,23.93
2019-04-01T00:14:06.098Z,25.03
2019-04-01T00:16:35.486Z,24.23
2019-04-01T00:19:04.839Z,26.63
2019-04-01T00:21:34.197Z,25.87
2019-04-01T00:24:03.500Z,25.83
2019-04-01T00:26:32.849Z,24.77
2019-04-01T00:29:02.154Z,25.53
2019-04-01T00:31:31.470Z,24.40
2019-04-01T00:34:00.789Z,25.40
2019-04-01T00:36:30.161Z,25.13
2019-04-01T00:38:59.507Z,24.60
2019-04-01T00:41:28.845Z,24.80
2019-04-01T00:44:02.298Z,24.40
2019-04-01T00:46:32.917Z,25.80
2019-04-01T00:49:02.266Z,26.07
2019-04-01T00:51:31.602Z,24.47
2019-04-01T00:54:00.889Z,24.27
2019-04-01T00:56:30.236Z,25.53
2019-04-01T00:59:00.602Z,25.90
2019-04-01T01:01:29.936Z,25.60
2019-04-01T01:03:59.248Z,26.57
2019-04-01T01:06:28.613Z,25.93
2019-04-01T01:08:57.920Z,25.80
2019-04-01T01:11:27.271Z,25.23
2019-04-01T01:13:56.570Z,25.00
2019-04-01T01:16:25.896Z,25.63
2019-04-01T01:18:55.241Z,25.40
2019-04-01T01:21:25.477Z,26.97
2019-04-01T01:23:54.771Z,25.70
2019-04-01T01:26:24.123Z,26.37
2019-04-01T01:28:53.418Z,25.17
2019-04-01T01:31:22.719Z,25.73
2019-04-01T01:33:52.072Z,25.57
2019-04-01T01:36:21.353Z,25.97
2019-04-01T01:38:50.699Z,26.13
2019-04-01T01:41:19.978Z,25.97
2019-04-01T01:43:49.305Z,27.97
2019-04-01T01:46:18.605Z,32.87
2019-04-01T01:48:47.961Z,30.60
2019-04-01T01:51:17.725Z,28.67
2019-04-01T01:53:47.084Z,29.97
2019-04-01T01:56:16.371Z,28.13
2019-04-01T01:58:45.722Z,26.00
2019-04-01T02:01:15.075Z,24.93
2019-04-01T02:03:44.375Z,24.53
2019-04-01T02:06:13.094Z,23.37
2019-04-01T02:08:42.444Z,23.77
2019-04-01T02:11:11.728Z,23.07
2019-04-01T02:13:41.044Z,22.17
2019-04-01T02:16:10.445Z,22.57
2019-04-01T02:18:39.736Z,21.50
2019-04-01T02:21:09.042Z,20.87
2019-04-01T02:23:38.398Z,20.97
2019-04-01T02:26:07.716Z,21.37
2019-04-01T02:28:37.057Z,20.53
2019-04-01T02:31:06.340Z,19.67
2019-04-01T02:33:35.698Z,21.47
2019-04-01T02:36:05.042Z,20.13
2019-04-01T02:38:34.426Z,20.87
2019-04-01T02:41:04.576Z,20.60
2019-04-01T02:43:33.949Z,20.97
2019-04-01T02:46:03.290Z,21.40
2019-04-01T02:48:33.313Z,20.60
2019-04-01T02:51:02.731Z,19.90
2019-04-01T02:53:32.074Z,18.87
2019-04-01T02:56:01.422Z,20.10
2019-04-01T02:58:30.837Z,20.13
2019-04-01T03:01:00.201Z,20.83
2019-04-01T03:03:29.562Z,19.47
2019-04-01T03:05:58.857Z,19.87
2019-04-01T03:08:28.195Z,20.07
2019-04-01T03:10:57.537Z,19.30
2019-04-01T03:13:26.891Z,19.90
2019-04-01T03:15:57.335Z,19.53
2019-04-01T03:18:27.404Z,19.93
2019-04-01T03:20:56.745Z,19.93
2019-04-01T03:23:26.031Z,20.17
2019-04-01T03:25:55.344Z,20.20
2019-04-01T03:28:24.634Z,20.50
2019-04-01T03:30:53.993Z,19.37
2019-04-01T03:33:23.343Z,21.07
2019-04-01T03:35:52.763Z,19.47
2019-04-01T03:38:22.126Z,21.17
2019-04-01T03:40:51.534Z,20.90
2019-04-01T03:43:20.874Z,19.87
2019-04-01T03:45:50.245Z,19.43
2019-04-01T03:48:19.612Z,19.73
2019-04-01T03:50:48.988Z,19.50
2019-04-01T03:53:18.958Z,20.03
2019-04-01T03:55:48.299Z,19.33
2019-04-01T03:58:17.645Z,18.70
2019-04-01T04:00:47.066Z,19.10
2019-04-01T04:03:16.977Z,19.30
2019-04-01T04:05:46.320Z,19.60
2019-04-01T04:08:15.821Z,19.50
2019-04-01T04:10:45.742Z,20.10
2019-04-01T04:13:15.064Z,18.93
2019-04-01T04:15:44.475Z,21.13
2019-04-01T04:18:13.897Z,19.70
2019-04-01T04:20:43.182Z,19.00
2019-04-01T04:23:12.605Z,21.90
2019-04-01T04:25:41.978Z,22.13
2019-04-01T04:28:11.361Z,30.37
2019-04-01T04:30:40.645Z,22.40
2019-04-01T04:33:10.063Z,20.47
2019-04-01T04:35:40.281Z,23.53
2019-04-01T04:38:09.621Z,20.50
2019-04-01T04:40:40.870Z,23.23
2019-04-01T04:43:09.982Z,22.10
2019-04-01T04:45:39.310Z,25.90
2019-04-01T04:48:08.604Z,19.27
2019-04-01T04:50:37.328Z,17.60
2019-04-01T04:53:06.730Z,16.87
2019-04-01T04:55:36.128Z,17.20
2019-04-01T04:58:05.473Z,22.33
2019-04-01T05:00:34.778Z,18.97
2019-04-01T05:03:04.146Z,18.80
2019-04-01T05:05:33.506Z,18.57
2019-04-01T05:08:03.954Z,15.60
2019-04-01T05:10:33.240Z,17.70
2019-04-01T05:13:02.596Z,16.67
2019-04-01T05:15:31.957Z,15.53
2019-04-01T05:18:00.684Z,15.27
2019-04-01T05:20:32.638Z,15.37
2019-04-01T05:23:03.204Z,15.83
2019-04-01T05:25:34.333Z,14.10
2019-04-01T05:28:04.768Z,13.77
2019-04-01T05:30:37.021Z,12.93
2019-04-01T05:33:06.348Z,14.77
2019-04-01T05:35:37.520Z,14.83
2019-04-01T05:38:08.004Z,13.67
2019-04-01T05:40:38.020Z,13.77
2019-04-01T05:43:06.758Z,13.00
2019-04-01T05:45:36.175Z,14.50
2019-04-01T05:48:04.909Z,13.40
2019-04-01T05:50:34.324Z,13.77
2019-04-01T05:53:03.622Z,13.07
2019-04-01T05:55:32.969Z,13.33
2019-04-01T05:58:01.681Z,13.17
2019-04-01T06:00:55.909Z,13.43
2019-04-01T06:03:25.975Z,12.83
2019-04-01T06:05:56.270Z,13.40
2019-04-01T06:08:25.645Z,13.57
2019-04-01T06:10:55.629Z,12.83
2019-04-01T06:13:27.051Z,12.50
2019-04-01T06:15:58.768Z,13.10
2019-04-01T06:18:30.691Z,11.90
2019-04-01T06:21:01.481Z,10.97
2019-04-01T06:23:30.809Z,12.17
2019-04-01T06:26:00.383Z,11.53
2019-04-01T06:28:29.721Z,12.17
2019-04-01T06:30:59.597Z,11.27
2019-04-01T06:33:29.071Z,11.93
2019-04-01T06:35:58.913Z,10.90
2019-04-01T06:38:27.777Z,10.43
2019-04-01T06:40:56.579Z,11.13
2019-04-01T06:43:26.596Z,10.47
2019-04-01T06:45:55.406Z,10.97
2019-04-01T06:48:24.824Z,10.40
2019-04-01T06:50:54.413Z,12.00
2019-04-01T06:53:23.630Z,10.73
2019-04-01T06:55:52.914Z,11.43
2019-04-01T06:58:22.258Z,11.43
2019-04-01T07:00:52.040Z,11.63
2019-04-01T07:03:21.938Z,10.87
2019-04-01T07:05:51.321Z,11.70
2019-04-01T07:08:23.178Z,12.07
2019-04-01T07:10:52.517Z,11.20
2019-04-01T07:13:21.823Z,11.20
2019-04-01T07:15:51.221Z,10.50
2019-04-01T07:18:20.522Z,11.90
2019-04-01T07:20:49.249Z,11.87
2019-04-01T07:23:18.601Z,11.70
2019-04-01T07:25:47.894Z,11.97
2019-04-01T07:28:17.185Z,12.33
2019-04-01T07:30:46.517Z,13.30
2019-04-01T07:33:16.863Z,13.87
2019-04-01T07:35:46.913Z,12.60
2019-04-01T07:38:17.292Z,12.83
2019-04-01T07:40:46.684Z,12.63
2019-04-01T07:43:16.236Z,12.63
2019-04-01T07:45:47.692Z,12.30
2019-04-01T07:48:18.317Z,12.90
2019-04-01T07:50:47.795Z,14.37
2019-04-01T07:53:17.693Z,14.47
2019-04-01T07:55:47.149Z,14.30
2019-04-01T07:58:16.458Z,13.67
2019-04-01T08:00:46.147Z,13.47
2019-04-01T08:03:15.509Z,15.00
2019-04-01T08:05:44.805Z,14.40
2019-04-01T08:08:14.171Z,14.80
2019-04-01T08:10:43.522Z,14.97
2019-04-01T08:13:12.842Z,15.73
2019-04-01T08:15:42.189Z,15.23
2019-04-01T08:18:11.538Z,14.87
2019-04-01T08:20:41.015Z,15.33
2019-04-01T08:23:10.766Z,13.40
2019-04-01T08:25:40.050Z,14.40
2019-04-01T08:28:09.393Z,14.80
2019-04-01T08:30:39.009Z,15.23
2019-04-01T08:33:08.416Z,14.77
2019-04-01T08:35:37.726Z,15.23
2019-04-01T08:38:07.069Z,14.53
2019-04-01T08:40:35.994Z,13.80
2019-04-01T08:43:05.337Z,14.57
2019-04-01T08:45:34.630Z,15.00
2019-04-01T08:48:04.015Z,14.67
2019-04-01T08:50:33.383Z,15.07
2019-04-01T08:53:02.745Z,14.50
2019-04-01T08:55:32.157Z,14.33
2019-04-01T08:58:01.633Z,15.37
2019-04-01T09:00:51.153Z,15.07
2019-04-01T09:03:20.561Z,15.43
2019-04-01T09:05:50.014Z,14.90
2019-04-01T09:08:19.976Z,15.37
2019-04-01T09:10:49.965Z,14.63
2019-04-01T09:13:21.870Z,15.33
2019-04-01T09:15:51.222Z,15.70
2019-04-01T09:18:20.569Z,14.67
2019-04-01T09:20:49.899Z,15.17
2019-04-01T09:23:19.183Z,15.27
2019-04-01T09:25:48.630Z,15.17
2019-04-01T09:28:17.973Z,15.23
2019-04-01T09:30:47.464Z,15.47
2019-04-01T09:33:16.881Z,15.27
2019-04-01T09:35:46.341Z,15.33
2019-04-01T09:38:16.753Z,15.20
2019-04-01T09:40:47.216Z,15.53
2019-04-01T09:43:16.590Z,14.90
2019-04-01T09:45:46.085Z,14.93
2019-04-01T09:48:16.469Z,15.63
2019-04-01T09:50:45.846Z,16.20
2019-04-01T09:53:16.193Z,16.20
2019-04-01T09:55:45.557Z,15.60
2019-04-01T09:58:14.958Z,15.63
2019-04-01T10:00:46.970Z,15.67
2019-04-01T10:03:16.426Z,15.10
2019-04-01T10:05:46.839Z,14.23
2019-04-01T10:08:18.206Z,16.10
2019-04-01T10:10:47.785Z,14.30
2019-04-01T10:13:17.077Z,14.17
2019-04-01T10:15:46.428Z,14.63
2019-04-01T10:18:15.718Z,14.93
2019-04-01T10:20:45.594Z,14.73
2019-04-01T10:23:15.021Z,14.60
2019-04-01T10:25:44.313Z,15.40
2019-04-01T10:28:13.612Z,15.37
2019-04-01T10:30:42.955Z,15.07
2019-04-01T10:33:12.544Z,14.80
2019-04-01T10:35:41.866Z,14.90
2019-04-01T10:38:11.156Z,14.47
2019-04-01T10:40:40.809Z,14.27
2019-04-01T10:43:10.154Z,13.87
2019-04-01T10:45:39.440Z,14.63
2019-04-01T10:48:08.810Z,14.70
2019-04-01T10:50:38.255Z,15.10
2019-04-01T10:53:07.658Z,15.00
2019-04-01T10:55:37.553Z,14.77
2019-04-01T10:58:07.343Z,13.73
2019-04-01T11:00:36.797Z,14.20
2019-04-01T11:03:06.517Z,14.60
2019-04-01T11:05:37.357Z,14.80
2019-04-01T11:08:07.360Z,14.80
2019-04-01T11:10:36.753Z,14.83
2019-04-01T11:13:06.088Z,14.10
2019-04-01T11:15:35.441Z,15.23
2019-04-01T11:18:04.741Z,14.10
2019-04-01T11:20:34.053Z,14.83
2019-04-01T11:23:04.958Z,14.07
2019-04-01T11:25:34.554Z,14.03
2019-04-01T11:28:03.896Z,13.33
2019-04-01T11:30:32.596Z,13.43
2019-04-01T11:33:02.011Z,13.37
2019-04-01T11:35:31.371Z,14.53
2019-04-01T11:38:00.725Z,13.93
2019-04-01T11:40:30.724Z,12.93
2019-04-01T11:43:00.103Z,14.07
2019-04-01T11:45:29.577Z,13.30
2019-04-01T11:47:59.629Z,13.53
2019-04-01T11:50:29.039Z,12.53
2019-04-01T11:52:58.418Z,13.70
2019-04-01T11:55:27.868Z,13.83
2019-04-01T11:57:57.201Z,12.80
2019-04-01T12:00:26.509Z,13.13
2019-04-01T12:02:55.854Z,12.77
2019-04-01T12:05:25.155Z,12.70
2019-04-01T12:07:54.505Z,12.90
2019-04-01T12:10:23.837Z,12.03
2019-04-01T12:12:53.214Z,12.33
2019-04-01T12:15:22.558Z,12.73
2019-04-01T12:17:51.977Z,12.30
2019-04-01T12:20:21.450Z,11.67
2019-04-01T12:22:50.750Z,12.00
2019-04-01T12:25:20.037Z,11.57
2019-04-01T12:27:49.386Z,12.37
2019-04-01T12:30:18.980Z,12.20
2019-04-01T12:32:49.582Z,11.60
2019-04-01T12:35:19.658Z,11.03
2019-04-01T12:37:49.622Z,10.87
2019-04-01T12:40:18.375Z,8.50
2019-04-01T12:42:50.678Z,8.70
2019-04-01T12:45:18.726Z,8.40
2019-04-01T12:47:48.081Z,7.73
2019-04-01T12:50:17.409Z,8.20
2019-04-01T12:52:47.082Z,8.27
2019-04-01T12:55:16.952Z,7.70
2019-04-01T12:57:48.434Z,7.73
2019-04-01T13:00:17.702Z,7.27
2019-04-01T13:02:46.983Z,6.50
2019-04-01T13:05:16.292Z,6.77
2019-04-01T13:07:45.629Z,6.43
2019-04-01T13:10:15.013Z,7.17
2019-04-01T13:12:44.356Z,7.03
2019-04-01T13:15:15.130Z,7.47
2019-04-01T13:17:44.709Z,6.70
2019-04-01T13:20:14.340Z,7.10
2019-04-01T13:22:44.311Z,6.53
2019-04-01T13:25:14.106Z,6.30
2019-04-01T13:27:43.434Z,6.77
2019-04-01T13:30:12.785Z,7.83
2019-04-01T13:32:42.085Z,6.90
2019-04-01T13:35:12.473Z,7.10
2019-04-01T13:37:41.782Z,7.33
2019-04-01T13:40:12.070Z,8.03
2019-04-01T13:42:41.411Z,6.77
2019-04-01T13:45:11.249Z,7.87
2019-04-01T13:47:41.453Z,6.97
2019-04-01T13:50:11.758Z,6.70
2019-04-01T13:52:41.205Z,7.50
2019-04-01T13:55:10.489Z,7.13
2019-04-01T13:57:39.864Z,7.20
2019-04-01T14:00:09.946Z,6.63
2019-04-01T14:02:39.391Z,6.93
2019-04-01T14:05:10.018Z,7.17
2019-04-01T14:07:39.306Z,7.33
2019-04-01T14:10:09.393Z,7.10
2019-04-01T14:12:38.747Z,7.00
2019-04-01T14:15:09.010Z,7.30
2019-04-01T14:17:38.348Z,6.90
2019-04-01T14:20:08.045Z,7.60
2019-04-01T14:22:37.462Z,7.70
2019-04-01T14:25:07.710Z,7.30
2019-04-01T14:27:39.287Z,7.20
2019-04-01T14:30:09.477Z,6.53
2019-04-01T14:32:38.775Z,6.83
2019-04-01T14:35:08.778Z,6.47
2019-04-01T14:37:39.744Z,6.50
2019-04-01T14:40:09.659Z,7.23
2019-04-01T14:42:40.085Z,10.23
2019-04-01T14:45:10.576Z,8.70
2019-04-01T14:47:56.134Z,9.23
2019-04-01T14:50:10.966Z,8.03
2019-04-01T14:52:41.353Z,7.40
2019-04-01T14:55:11.901Z,7.23
2019-04-01T14:57:41.247Z,7.57
2019-04-01T15:00:13.474Z,7.43
2019-04-01T15:02:42.803Z,6.90
2019-04-01T15:05:12.149Z,8.00
2019-04-01T15:07:44.067Z,7.97
2019-04-01T15:10:15.203Z,7.50
2019-04-01T15:12:44.945Z,7.77
2019-04-01T15:15:16.094Z,7.63
2019-04-01T15:17:46.343Z,7.63
2019-04-01T15:20:16.882Z,7.67
2019-04-01T15:22:46.224Z,7.17
2019-04-01T15:25:21.581Z,11.33
2019-04-01T15:27:50.918Z,11.77
2019-04-01T15:30:20.612Z,7.40
2019-04-01T15:32:50.013Z,7.33
2019-04-01T15:35:20.002Z,7.63
2019-04-01T15:37:49.413Z,7.37
2019-04-01T15:40:19.348Z,7.73
2019-04-01T15:42:49.762Z,7.90
2019-04-01T15:45:20.962Z,7.50
2019-04-01T15:47:50.966Z,7.73
2019-04-01T15:50:28.306Z,8.57
2019-04-01T15:52:50.746Z,11.50
2019-04-01T15:55:21.395Z,8.90
2019-04-01T15:57:50.813Z,8.13
2019-04-01T16:00:21.913Z,8.20
2019-04-01T16:02:53.501Z,7.57
2019-04-01T16:05:23.794Z,7.87
2019-04-01T16:07:53.202Z,9.37
2019-04-01T16:10:22.586Z,8.77
2019-04-01T16:12:53.158Z,7.83
2019-04-01T16:15:21.989Z,7.70
2019-04-01T16:17:53.792Z,7.97
2019-04-01T16:20:21.960Z,9.80
2019-04-01T16:22:51.454Z,8.50
2019-04-01T16:25:20.353Z,8.23
2019-04-01T16:27:50.774Z,7.77
2019-04-01T16:30:21.173Z,7.90
2019-04-01T16:32:49.991Z,7.63
2019-04-01T16:35:20.321Z,7.80
2019-04-01T16:37:50.705Z,14.13
2019-04-01T16:40:21.189Z,11.10
2019-04-01T16:42:49.950Z,7.40
2019-04-01T16:45:21.073Z,6.53
2019-04-01T16:47:51.493Z,6.37
2019-04-01T16:50:20.841Z,6.60
2019-04-01T16:52:50.281Z,5.83
2019-04-01T16:55:25.623Z,5.77
2019-04-01T16:57:55.025Z,20.27
2019-04-01T17:00:26.149Z,9.80
2019-04-01T17:02:56.869Z,7.80
2019-04-01T17:05:28.824Z,6.93
2019-04-01T17:07:58.161Z,6.47
2019-04-01T17:10:27.981Z,5.43
2019-04-01T17:12:56.809Z,5.63
2019-04-01T17:15:26.203Z,5.83
2019-04-01T17:17:57.587Z,5.40
2019-04-01T17:20:27.045Z,5.87
2019-04-01T17:22:57.487Z,26.83
2019-04-01T17:25:27.845Z,6.87
2019-04-01T17:27:58.253Z,13.13
2019-04-01T17:30:28.589Z,7.93
2019-04-01T17:32:57.946Z,8.17
2019-04-01T17:35:26.781Z,12.17
2019-04-01T17:37:56.141Z,8.10
2019-04-01T17:40:26.912Z,5.90
2019-04-01T17:42:56.262Z,5.93
2019-04-01T17:45:32.445Z,5.27
2019-04-01T17:48:01.819Z,5.30
2019-04-01T17:50:31.357Z,6.20
2019-04-01T17:53:00.694Z,5.93
2019-04-01T17:55:31.065Z,6.53
2019-04-01T17:58:02.912Z,6.70
2019-04-01T18:00:42.452Z,6.30
2019-04-01T18:03:30.149Z,6.47
2019-04-01T18:05:59.455Z,6.30
2019-04-01T18:08:29.830Z,6.47
2019-04-01T18:11:18.617Z,6.17
2019-04-01T18:14:10.941Z,6.27
2019-04-01T18:17:25.396Z,7.13
2019-04-01T18:20:02.705Z,8.03
2019-04-01T18:22:32.085Z,7.23
2019-04-01T18:25:03.592Z,6.87
2019-04-01T18:27:34.981Z,14.50
2019-04-01T18:30:19.129Z,8.13
2019-04-01T18:32:54.820Z,17.73
2019-04-01T18:35:36.102Z,9.33
2019-04-01T18:38:07.522Z,7.53
2019-04-01T18:40:36.973Z,7.30
2019-04-01T18:43:12.429Z,7.07
2019-04-01T18:45:51.263Z,7.63
2019-04-01T18:48:25.469Z,7.77
2019-04-01T18:51:00.854Z,7.17
2019-04-01T18:53:30.259Z,6.93
2019-04-01T18:56:01.728Z,6.60
2019-04-01T18:58:31.149Z,7.00
2019-04-01T19:01:00.448Z,6.20
2019-04-01T19:03:35.957Z,6.23
2019-04-01T19:06:07.351Z,6.47
2019-04-01T19:08:46.458Z,11.20
2019-04-01T19:11:24.060Z,17.63
2019-04-01T19:14:14.790Z,12.30
2019-04-01T19:16:48.308Z,6.03
2019-04-01T19:20:11.374Z,6.07
2019-04-01T19:22:48.044Z,5.57
2019-04-01T19:25:19.371Z,5.47
2019-04-01T19:27:49.227Z,5.93
2019-04-01T19:30:20.448Z,5.67
2019-04-01T19:32:49.823Z,5.37
2019-04-01T19:35:19.194Z,6.23
2019-04-01T19:37:53.572Z,6.87
2019-04-01T19:40:23.183Z,7.07
2019-04-01T19:42:53.478Z,6.40
2019-04-01T19:45:22.822Z,5.60
2019-04-01T19:47:52.165Z,6.07
2019-04-01T19:50:22.129Z,5.93
2019-04-01T19:52:51.427Z,6.10
2019-04-01T19:55:20.773Z,5.70
2019-04-01T19:57:50.095Z,14.53
2019-04-01T20:00:27.733Z,19.97
2019-04-01T20:02:50.989Z,8.60
2019-04-01T20:05:21.145Z,6.60
2019-04-01T20:07:51.362Z,5.83
2019-04-01T20:10:20.865Z,5.67
2019-04-01T20:12:50.961Z,7.10
2019-04-01T20:15:21.794Z,5.90
2019-04-01T20:17:51.261Z,7.23
2019-04-01T20:20:20.578Z,6.60
2019-04-01T20:22:52.068Z,6.03
2019-04-01T20:25:21.442Z,6.03
2019-04-01T20:27:50.915Z,5.67
2019-04-01T20:30:21.505Z,5.20
2019-04-01T20:32:50.989Z,5.97
2019-04-01T20:35:23.700Z,5.33
2019-04-01T20:37:51.902Z,5.60
2019-04-01T20:40:21.736Z,5.37
2019-04-01T20:42:51.223Z,5.13
2019-04-01T20:45:20.559Z,5.37
2019-04-01T20:47:50.437Z,5.60
2019-04-01T20:50:21.490Z,4.60
2019-04-01T20:52:50.821Z,5.10
2019-04-01T20:55:20.184Z,5.20
2019-04-01T20:57:49.547Z,4.80
2019-04-01T21:00:19.678Z,5.23
2019-04-01T21:02:49.022Z,5.10
2019-04-01T21:05:18.837Z,5.67
2019-04-01T21:07:48.202Z,5.00
2019-04-01T21:10:17.865Z,4.97
2019-04-01T21:12:47.159Z,5.23
2019-04-01T21:15:17.490Z,5.23
2019-04-01T21:17:46.797Z,5.17
2019-04-01T21:20:16.538Z,4.90
2019-04-01T21:22:45.927Z,4.97
2019-04-01T21:25:16.117Z,4.63
2019-04-01T21:27:45.417Z,5.07
2019-04-01T21:30:15.472Z,5.40
2019-04-01T21:32:45.311Z,4.77
2019-04-01T21:35:15.608Z,5.00
2019-04-01T21:37:49.269Z,5.20
2019-04-01T21:40:18.642Z,5.40
2019-04-01T21:42:47.927Z,5.43
2019-04-01T21:45:17.254Z,4.80
2019-04-01T21:47:46.549Z,5.50
2019-04-01T21:50:16.469Z,4.97
2019-04-01T21:52:45.754Z,5.70
2019-04-01T21:55:15.119Z,4.90
2019-04-01T21:57:44.421Z,5.20
2019-04-01T22:00:18.182Z,5.07
2019-04-01T22:02:48.069Z,5.00
2019-04-01T22:05:17.415Z,5.27
2019-04-01T22:07:49.747Z,5.00
2019-04-01T22:10:19.525Z,5.20
2019-04-01T22:12:48.985Z,4.83
2019-04-01T22:15:18.861Z,5.83
2019-04-01T22:17:48.880Z,4.77
2019-04-01T22:20:18.157Z,4.63
2019-04-01T22:22:47.534Z,4.80
2019-04-01T22:25:16.814Z,5.50
2019-04-01T22:27:46.146Z,5.13
2019-04-01T22:30:17.592Z,6.30
2019-04-01T22:32:47.613Z,6.17
2019-04-01T22:35:16.934Z,6.03
2019-04-01T22:37:46.249Z,5.77
2019-04-01T22:40:15.661Z,5.60
2019-04-01T22:42:46.445Z,5.47
2019-04-01T22:45:15.777Z,5.80
2019-04-01T22:47:45.442Z,6.67
2019-04-01T22:50:16.004Z,5.87
2019-04-01T22:52:45.283Z,5.10
2019-04-01T22:55:14.607Z,5.77
2019-04-01T22:57:43.957Z,5.40
2019-04-01T23:00:15.061Z,5.33
2019-04-01T23:02:44.389Z,5.60
2019-04-01T23:05:13.709Z,5.17
2019-04-01T23:07:43.059Z,6.00
2019-04-01T23:10:13.353Z,6.03
2019-04-01T23:12:42.629Z,5.20
2019-04-01T23:15:12.493Z,5.33
2019-04-01T23:17:41.782Z,5.80
2019-04-01T23:20:11.620Z,5.77
2019-04-01T23:22:40.902Z,6.00
2019-04-01T23:25:10.313Z,6.20
2019-04-01T23:27:39.662Z,6.20
2019-04-01T23:30:10.573Z,5.70
2019-04-01T23:32:41.878Z,5.93
2019-04-01T23:35:12.546Z,5.67
2019-04-01T23:37:42.521Z,6.40
2019-04-01T23:40:12.270Z,5.73
2019-04-01T23:42:41.625Z,6.37
2019-04-01T23:45:11.701Z,5.67
2019-04-01T23:47:41.034Z,5.83
2019-04-01T23:50:10.918Z,6.00
2019-04-01T23:52:40.377Z,5.87
2019-04-01T23:55:10.211Z,5.60
2019-04-01T23:57:39.546Z,5.80
